Time;durP1;ratioP1;P1;durP2;ratioP2;P2;SDS_P1;SDS_P2;PMS_P1;PMS_P2;Temp;Humidity;BMP_temperature;BMP_pressure;BME280_temperature;BME280_humidity;BME280_pressure;Samples;Min_cycle;Max_cycle;Signal;HPM_P1;HPM_P2
2022/03/19 00:01:16;;;;;;;0.10;0.10;;;;;;;9.51;61.89;104571.47;5011626;28;20120;-80
2022/03/19 00:03:42;;;;;;;0.10;0.10;;;;;;;9.49;62.09;104570.50;5013761;28;20026;-80
2022/03/19 00:06:08;;;;;;;0.10;0.10;;;;;;;9.46;62.26;104575.63;5022580;28;20520;-83
2022/03/19 00:08:35;;;;;;;0.13;0.13;;;;;;;9.44;62.94;104577.31;5013823;28;20407;-81
2022/03/19 00:11:01;;;;;;;0.15;0.15;;;;;;;9.43;62.22;104575.50;5017980;28;20030;-81
2022/03/19 00:13:27;;;;;;;0.08;0.08;;;;;;;9.40;62.05;104576.28;5011232;28;20026;-79
2022/03/19 00:15:53;;;;;;;0.10;0.10;;;;;;;9.35;61.73;104572.53;5019626;28;20033;-77
2022/03/19 00:18:20;;;;;;;0.75;0.75;;;;;;;9.31;61.88;104573.22;5024097;28;20033;-77
2022/03/19 00:20:47;;;;;;;0.10;0.10;;;;;;;9.29;61.75;104574.91;5008450;28;20045;-79
2022/03/19 00:23:14;;;;;;;0.05;0.05;;;;;;;9.25;61.09;104576.50;5009369;28;20027;-78
2022/03/19 00:25:41;;;;;;;0.00;0.00;;;;;;;9.20;62.10;104576.28;5009629;28;20510;-78
2022/03/19 00:28:07;;;;;;;0.10;0.10;;;;;;;9.16;62.57;104584.00;5013181;28;20033;-78
2022/03/19 00:30:33;;;;;;;0.10;0.10;;;;;;;9.13;62.02;104581.22;5018723;28;20041;-80
2022/03/19 00:32:59;;;;;;;0.00;0.00;;;;;;;9.12;62.63;104585.63;5009845;28;20025;-79
2022/03/19 00:35:26;;;;;;;0.10;0.10;;;;;;;9.11;62.87;104590.81;5012863;28;20037;-79
2022/03/19 00:37:53;;;;;;;0.10;0.10;;;;;;;9.09;62.36;104584.56;5016240;28;20113;-79
2022/03/19 00:40:22;;;;;;;0.10;0.10;;;;;;;9.07;62.92;104588.03;5022546;28;20045;-79
2022/03/19 00:42:49;;;;;;;0.63;0.63;;;;;;;9.04;61.73;104587.88;5014076;28;20026;-79
2022/03/19 00:45:16;;;;;;;1.85;1.75;;;;;;;9.02;62.47;104583.34;5017035;28;20579;-79
2022/03/19 00:47:42;;;;;;;0.10;0.10;;;;;;;8.99;62.35;104580.59;5009740;28;20109;-79
2022/03/19 00:50:09;;;;;;;0.10;0.10;;;;;;;8.96;62.33;104581.34;5010655;28;20121;-79
2022/03/19 00:52:35;;;;;;;0.10;0.10;;;;;;;8.92;63.45;104576.72;5014526;28;20083;-80
2022/03/19 00:55:02;;;;;;;0.10;0.10;;;;;;;8.90;62.73;104583.72;5007695;28;20029;-78
2022/03/19 00:57:36;;;;;;;0.10;0.10;;;;;;;8.87;62.33;104584.47;5016197;28;20030;-78
2022/03/19 01:00:03;;;;;;;0.10;0.10;;;;;;;8.86;62.62;104584.38;5016859;28;20042;-79
2022/03/19 01:02:29;;;;;;;0.10;0.10;;;;;;;8.85;63.58;104585.22;5017524;28;20025;-79
2022/03/19 01:04:55;;;;;;;0.10;0.10;;;;;;;8.82;63.32;104569.19;5018755;28;20064;-79
2022/03/19 01:07:21;;;;;;;0.10;0.10;;;;;;;8.79;62.33;104577.00;5010534;28;20053;-78
2022/03/19 01:09:47;;;;;;;0.10;0.10;;;;;;;8.81;62.75;104580.59;5009063;28;20080;-80
2022/03/19 01:12:14;;;;;;;0.20;0.20;;;;;;;8.81;63.09;104583.25;5005238;28;20029;-80
2022/03/19 01:14:40;;;;;;;0.10;0.10;;;;;;;8.82;62.96;104575.41;5009154;28;20564;-79
2022/03/19 01:17:06;;;;;;;0.38;0.38;;;;;;;8.82;63.48;104577.13;5012081;28;20030;-78
2022/03/19 01:20:03;;;;;;;0.10;0.10;;;;;;;8.82;64.19;104571.84;5018883;28;20029;-79
2022/03/19 01:22:19;;;;;;;0.10;0.10;;;;;;;8.81;63.51;104575.31;5009088;28;20108;-78
2022/03/19 01:24:45;;;;;;;0.10;0.10;;;;;;;8.81;63.22;104568.31;5006931;28;20484;-79
2022/03/19 01:27:11;;;;;;;0.10;0.10;;;;;;;8.81;64.06;104563.03;5013661;28;20057;-78
2022/03/19 01:29:38;;;;;;;0.10;0.10;;;;;;;8.81;63.46;104563.03;5013201;28;20042;-78
2022/03/19 01:32:04;;;;;;;0.20;0.20;;;;;;;8.82;62.36;104569.19;5009530;28;20018;-79
2022/03/19 01:34:30;;;;;;;0.10;0.10;;;;;;;8.82;62.95;104566.56;5012807;28;20120;-79
2022/03/19 01:36:57;;;;;;;1.42;0.95;;;;;;;8.80;63.66;104570.84;4999387;28;20022;-79
2022/03/19 01:39:23;;;;;;;0.00;0.00;;;;;;;8.79;64.26;104571.72;5004966;28;20049;-79
2022/03/19 01:41:49;;;;;;;0.10;0.10;;;;;;;8.79;63.92;104569.06;5004488;28;20030;-79
2022/03/19 01:44:19;;;;;;;0.20;0.20;;;;;;;8.81;63.19;104572.69;5010628;28;20033;-78
2022/03/19 01:46:56;;;;;;;0.25;0.25;;;;;;;8.81;63.55;104563.03;5005857;28;20113;-78
2022/03/19 01:49:22;;;;;;;0.10;0.10;;;;;;;8.76;63.37;104560.97;5011448;28;20530;-78
2022/03/19 01:51:48;;;;;;;0.10;0.10;;;;;;;8.72;63.08;104560.84;5007433;28;20057;-79
2022/03/19 01:54:15;;;;;;;0.10;0.10;;;;;;;8.71;63.89;104551.09;5008259;28;20025;-79
2022/03/19 01:56:44;;;;;;;0.10;0.10;;;;;;;8.68;63.37;104550.94;5008518;28;20084;-79
2022/03/19 01:59:12;;;;;;;0.10;0.10;;;;;;;8.66;64.05;104549.06;5010400;28;20088;-79
2022/03/19 02:01:39;;;;;;;0.10;0.10;;;;;;;8.64;63.94;104538.41;5008309;28;20026;-78
2022/03/19 02:04:06;;;;;;;0.10;0.10;;;;;;;8.62;63.60;104550.66;5009060;28;20034;-79
2022/03/19 02:06:32;;;;;;;0.10;0.10;;;;;;;8.62;63.95;104542.72;5002584;28;20068;-79
2022/03/19 02:09:00;;;;;;;0.10;0.10;;;;;;;8.62;63.21;104548.00;5003087;28;20376;-78
2022/03/19 02:11:26;;;;;;;0.10;0.10;;;;;;;8.60;63.83;104546.13;5004533;28;20034;-79
2022/03/19 02:13:52;;;;;;;0.10;0.10;;;;;;;8.57;63.60;104541.59;5009113;28;20026;-79
2022/03/19 02:16:20;;;;;;;0.10;0.10;;;;;;;8.54;64.05;104547.63;5010518;28;20037;-78
2022/03/19 02:18:46;;;;;;;0.10;0.10;;;;;;;8.50;63.80;104544.78;5007250;28;20022;-79
2022/03/19 02:21:12;;;;;;;0.17;0.17;;;;;;;8.47;63.63;104539.34;5008071;28;20030;-79
2022/03/19 02:26:25;;;;;;;0.10;0.10;;;;;;;8.38;63.37;104538.03;5003311;28;20068;-79
2022/03/19 02:28:51;;;;;;;0.22;0.22;;;;;;;8.34;63.01;104528.16;5000879;28;20030;-78
2022/03/19 02:31:17;;;;;;;0.10;0.10;;;;;;;8.31;63.27;104532.38;5003072;28;20531;-79
2022/03/19 02:33:43;;;;;;;0.10;0.10;;;;;;;8.28;62.90;104533.13;5012853;28;20042;-78
2022/03/19 02:36:09;;;;;;;0.05;0.05;;;;;;;8.26;63.47;104534.78;5009132;28;20076;-79
2022/03/19 02:38:36;;;;;;;0.10;0.10;;;;;;;8.26;62.67;104534.78;5002212;28;20443;-79
2022/03/19 02:41:04;;;;;;;0.30;0.30;;;;;;;8.25;64.05;104533.00;5010080;28;20570;-77
2022/03/19 02:43:30;;;;;;;0.10;0.10;;;;;;;8.24;63.86;104525.91;5005229;28;20492;-78
2022/03/19 02:45:58;;;;;;;0.10;0.10;;;;;;;8.22;64.37;104522.25;5004451;28;20035;-79
2022/03/19 02:48:24;;;;;;;0.10;0.10;;;;;;;8.20;64.38;104530.13;5003601;28;20028;-79
2022/03/19 02:50:50;;;;;;;2.78;1.65;;;;;;;8.18;63.90;104523.84;5008123;28;20141;-79
2022/03/19 02:53:16;;;;;;;0.10;0.10;;;;;;;8.16;64.02;104525.53;5002249;28;20026;-79
2022/03/19 02:55:43;;;;;;;0.45;0.45;;;;;;;8.14;63.21;104518.31;5005870;28;20049;-79
2022/03/19 02:58:10;;;;;;;0.10;0.10;;;;;;;8.10;63.78;104518.19;5002354;28;20034;-79
2022/03/19 03:00:38;;;;;;;0.15;0.15;;;;;;;8.07;63.94;104507.50;5012889;28;20036;-79
2022/03/19 03:03:04;;;;;;;0.30;0.30;;;;;;;8.03;64.10;104505.50;5015152;28;20110;-79
2022/03/19 03:08:00;;;;;;;0.10;0.10;;;;;;;7.99;63.96;104503.56;4992118;28;20053;-79
2022/03/19 03:10:27;;;;;;;0.10;0.10;;;;;;;7.99;64.42;104502.63;4975655;28;20432;-78
2022/03/19 03:12:54;;;;;;;0.10;0.10;;;;;;;7.98;63.95;104496.44;4991774;28;20030;-79
2022/03/19 03:15:20;;;;;;;0.08;0.08;;;;;;;7.94;63.96;104499.78;4989294;28;20035;-79
2022/03/19 03:17:46;;;;;;;0.10;0.10;;;;;;;7.90;64.98;104500.44;4988061;28;20061;-78
2022/03/19 03:20:13;;;;;;;0.82;0.82;;;;;;;7.90;63.95;104497.78;4991839;28;20038;-78
2022/03/19 03:22:42;;;;;;;0.10;0.10;;;;;;;7.82;64.73;104491.25;4978778;28;20120;-78
2022/03/19 03:25:08;;;;;;;0.00;0.00;;;;;;;7.77;64.83;104494.53;4980888;28;20038;-78
2022/03/19 03:27:35;;;;;;;0.10;0.10;;;;;;;7.75;64.31;104496.22;4987184;28;20041;-77
2022/03/19 03:30:01;;;;;;;0.10;0.10;;;;;;;7.72;64.37;104493.41;4992358;28;20026;-78
2022/03/19 03:32:27;;;;;;;0.10;0.10;;;;;;;7.71;64.66;104503.88;4984156;28;20052;-78
2022/03/19 03:34:53;;;;;;;0.10;0.10;;;;;;;7.69;64.38;104498.53;4995154;28;20041;-77
2022/03/19 03:37:19;;;;;;;0.10;0.10;;;;;;;7.68;64.08;104491.44;4993214;28;20041;-77
2022/03/19 03:39:45;;;;;;;0.10;0.10;;;;;;;7.65;64.98;104499.22;4996733;28;20412;-76
2022/03/19 03:42:12;;;;;;;0.10;0.10;;;;;;;7.65;64.23;104493.00;4994000;28;20026;-78
2022/03/19 03:44:41;;;;;;;0.10;0.10;;;;;;;7.63;64.71;104495.59;4992450;28;20109;-78
2022/03/19 03:47:07;;;;;;;0.30;0.30;;;;;;;7.63;64.01;104485.03;4986333;28;20030;-78
2022/03/19 03:49:34;;;;;;;0.10;0.10;;;;;;;7.65;64.73;104491.31;4989483;28;20049;-78
2022/03/19 03:52:00;;;;;;;0.10;0.10;;;;;;;7.64;64.70;104494.75;4985184;28;20178;-77
2022/03/19 03:54:26;;;;;;;0.73;0.73;;;;;;;7.61;64.66;104487.59;4992383;28;20045;-78
2022/03/19 03:56:52;;;;;;;0.10;0.10;;;;;;;7.59;64.14;104483.97;4985957;28;20041;-78
2022/03/19 03:59:19;;;;;;;0.10;0.10;;;;;;;7.57;64.38;104487.34;4990884;28;20369;-76
2022/03/19 04:01:46;;;;;;;0.10;0.10;;;;;;;7.54;65.20;104484.53;4991899;28;20030;-77
2022/03/19 04:04:12;;;;;;;0.10;0.10;;;;;;;7.50;64.83;104490.50;4985462;28;20030;-78
2022/03/19 04:06:38;;;;;;;0.10;0.10;;;;;;;7.49;64.15;104488.69;4993659;28;20030;-77
2022/03/19 04:09:04;;;;;;;0.10;0.10;;;;;;;7.45;64.56;104491.19;4988068;28;20049;-78
2022/03/19 04:11:30;;;;;;;0.10;0.10;;;;;;;7.48;64.27;104495.72;4987757;28;20042;-78
2022/03/19 04:13:56;;;;;;;0.10;0.10;;;;;;;7.51;64.42;104490.56;4987592;28;20035;-79
2022/03/19 04:16:22;;;;;;;0.10;0.10;;;;;;;7.46;64.11;104484.16;4989281;28;20037;-79
2022/03/19 04:18:48;;;;;;;0.10;0.10;;;;;;;7.48;64.07;104482.50;4986483;28;20031;-79
2022/03/19 04:21:14;;;;;;;0.10;0.10;;;;;;;7.46;64.76;104489.44;4978573;28;20054;-79
2022/03/19 04:23:41;;;;;;;0.47;0.47;;;;;;;7.48;64.22;104484.22;4972100;28;20039;-78
2022/03/19 04:26:07;;;;;;;0.10;0.10;;;;;;;7.50;64.15;104477.31;4991347;28;20035;-78
2022/03/19 04:28:33;;;;;;;0.15;0.15;;;;;;;7.48;64.49;104485.16;4980868;28;20062;-79
2022/03/19 04:30:59;;;;;;;0.57;0.57;;;;;;;7.47;64.33;104485.06;4978001;28;20428;-79
2022/03/19 04:33:25;;;;;;;0.10;0.10;;;;;;;7.45;64.30;104483.25;4977517;28;20038;-78
2022/03/19 04:36:30;;;;;;;0.10;0.10;;;;;;;7.44;64.16;104486.72;4991668;28;20062;-78
2022/03/19 04:38:39;;;;;;;0.10;0.10;;;;;;;7.41;64.28;104476.03;4975998;28;20690;-78
2022/03/19 04:41:05;;;;;;;0.10;0.10;;;;;;;7.38;63.41;104486.41;4983697;28;20031;-78
2022/03/19 04:43:31;;;;;;;0.10;0.10;;;;;;;7.36;63.94;104477.50;4982021;28;20084;-78
2022/03/19 04:45:57;;;;;;;0.10;0.10;;;;;;;7.34;64.23;104473.88;4991899;28;20038;-77
2022/03/19 04:48:24;;;;;;;0.10;0.10;;;;;;;7.32;64.26;104475.53;4987654;28;20547;-78
2022/03/19 04:50:50;;;;;;;0.10;0.10;;;;;;;7.35;64.05;104470.44;4975236;28;20034;-78
2022/03/19 04:53:16;;;;;;;0.10;0.10;;;;;;;7.30;64.18;104471.91;4982423;28;20038;-79
2022/03/19 04:55:42;;;;;;;0.10;0.10;;;;;;;7.28;64.02;104471.81;4986352;28;20047;-78
2022/03/19 04:58:09;;;;;;;0.10;0.10;;;;;;;7.28;63.83;104474.47;4986659;28;20026;-79
2022/03/19 05:00:36;;;;;;;0.10;0.10;;;;;;;7.28;63.80;104468.28;4977860;28;20401;-78
2022/03/19 05:03:03;;;;;;;0.10;0.10;;;;;;;7.28;64.16;104468.28;4992526;28;20436;-79
2022/03/19 05:05:29;;;;;;;0.10;0.10;;;;;;;7.29;64.18;104475.38;4977500;28;20520;-77
2022/03/19 05:07:55;;;;;;;0.10;0.10;;;;;;;7.30;64.19;104469.25;4985426;28;20503;-78
2022/03/19 05:13:09;;;;;;;0.10;0.10;;;;;;;7.26;64.20;104464.66;4977305;28;20031;-78
2022/03/19 05:15:35;;;;;;;0.10;0.10;;;;;;;7.26;63.89;104480.47;4975530;28;20038;-78
2022/03/19 05:18:02;;;;;;;0.10;0.10;;;;;;;7.25;63.65;104468.13;4971599;28;20055;-78
2022/03/19 05:20:28;;;;;;;0.10;0.10;;;;;;;7.26;63.69;104473.50;4975855;28;20049;-78
2022/03/19 05:22:54;;;;;;;0.17;0.17;;;;;;;7.23;64.39;104462.78;4974234;28;20035;-78
2022/03/19 05:25:21;;;;;;;0.15;0.15;;;;;;;7.24;64.47;104466.28;4986297;28;20118;-78
2022/03/19 05:27:47;;;;;;;0.10;0.10;;;;;;;7.24;64.37;104464.59;4990646;28;20042;-79
2022/03/19 05:30:13;;;;;;;0.15;0.15;;;;;;;7.25;64.15;104473.38;4987645;28;20038;-78
2022/03/19 05:32:39;;;;;;;0.10;0.10;;;;;;;7.27;63.43;104477.03;4980814;28;20053;-78
2022/03/19 05:35:07;;;;;;;0.10;0.10;;;;;;;7.27;63.41;104466.47;4976188;28;20110;-79
2022/03/19 05:37:33;;;;;;;0.10;0.10;;;;;;;7.27;63.89;104475.28;4975398;28;20133;-78
2022/03/19 05:40:01;;;;;;;0.10;0.10;;;;;;;7.26;63.75;104475.22;4976855;28;20031;-79
2022/03/19 05:42:28;;;;;;;0.10;0.10;;;;;;;7.28;64.69;104473.56;4982339;28;20038;-79
2022/03/19 05:44:54;;;;;;;0.10;0.10;;;;;;;7.29;64.74;104472.75;4988901;28;20404;-79
2022/03/19 05:47:21;;;;;;;0.20;0.20;;;;;;;7.27;64.34;104471.75;4975065;28;20090;-78
2022/03/19 05:49:47;;;;;;;0.10;0.10;;;;;;;7.26;64.77;104468.22;4984977;28;20596;-77
2022/03/19 05:52:13;;;;;;;0.20;0.20;;;;;;;7.25;64.66;104478.66;4978228;28;20026;-78
2022/03/19 05:54:42;;;;;;;0.10;0.10;;;;;;;7.26;64.05;104478.78;4985923;28;20026;-79
2022/03/19 05:57:09;;;;;;;0.10;0.10;;;;;;;7.20;64.79;104478.44;4987543;28;20037;-79
2022/03/19 05:59:35;;;;;;;0.10;0.10;;;;;;;7.18;64.15;104474.81;4990286;28;20087;-79
2022/03/19 06:02:02;;;;;;;0.10;0.10;;;;;;;7.17;64.83;104480.91;4984578;28;20030;-78
2022/03/19 06:04:28;;;;;;;0.20;0.20;;;;;;;7.18;64.86;104487.06;4987365;28;20034;-79
2022/03/19 06:06:54;;;;;;;0.10;0.10;;;;;;;7.22;64.26;104483.78;4986186;28;20038;-79
2022/03/19 06:09:20;;;;;;;0.10;0.10;;;;;;;7.23;64.75;104493.53;4975980;28;20037;-78
2022/03/19 06:11:47;;;;;;;0.10;0.10;;;;;;;7.22;64.51;104479.41;4973807;28;20037;-79
2022/03/19 06:14:14;;;;;;;0.10;0.10;;;;;;;7.21;64.33;104487.25;4978902;28;20039;-78
2022/03/19 06:16:40;;;;;;;0.35;0.35;;;;;;;7.23;64.24;104485.63;4979634;28;20022;-78
2022/03/19 06:19:06;;;;;;;0.10;0.10;;;;;;;7.19;65.36;104488.91;4973631;28;20075;-79
2022/03/19 06:21:32;;;;;;;0.10;0.10;;;;;;;7.22;64.87;104491.72;4974585;28;20133;-78
2022/03/19 06:23:58;;;;;;;0.10;0.10;;;;;;;7.23;64.99;104485.63;4982808;28;20080;-79
2022/03/19 06:26:24;;;;;;;0.10;0.10;;;;;;;7.27;64.88;104484.94;4984250;28;20034;-79
2022/03/19 06:28:53;;;;;;;0.10;0.10;;;;;;;7.30;64.06;104482.44;4986389;28;20034;-79
2022/03/19 06:31:19;;;;;;;0.10;0.10;;;;;;;7.31;65.03;104481.63;4973333;28;20035;-78
2022/03/19 06:33:45;;;;;;;0.10;0.10;;;;;;;7.34;64.84;104479.16;4978583;28;20022;-79
2022/03/19 06:39:00;;;;;;;0.10;0.10;;;;;;;7.42;64.55;104485.72;4981457;28;20492;-79
2022/03/19 06:41:26;;;;;;;0.10;0.10;;;;;;;7.44;64.53;104484.09;4985801;28;20058;-79
2022/03/19 06:43:52;;;;;;;0.10;0.10;;;;;;;7.47;64.75;104471.88;4974485;28;20030;-79
2022/03/19 06:46:19;;;;;;;0.10;0.10;;;;;;;7.49;64.09;104481.69;4971656;28;20042;-78
2022/03/19 06:48:46;;;;;;;0.10;0.10;;;;;;;7.56;64.36;104474.97;4983911;28;20119;-79
2022/03/19 06:51:13;;;;;;;0.10;0.10;;;;;;;7.61;64.96;104478.75;4969976;28;20043;-79
2022/03/19 06:53:39;;;;;;;0.10;0.10;;;;;;;7.70;65.16;104473.03;4977613;28;20018;-78
2022/03/19 06:56:06;;;;;;;0.15;0.15;;;;;;;7.76;64.65;104474.28;4982912;28;20066;-79
2022/03/19 06:58:33;;;;;;;0.10;0.10;;;;;;;7.84;65.23;104477.28;4982153;28;20421;-80
2022/03/19 07:01:01;;;;;;;0.10;0.10;;;;;;;7.88;65.73;104473.06;4986227;28;20141;-79
2022/03/19 07:03:27;;;;;;;0.10;0.10;;;;;;;7.94;64.72;104478.66;4974823;28;20117;-79
2022/03/19 07:05:53;;;;;;;0.10;0.10;;;;;;;8.02;65.04;104477.28;4981912;28;20556;-80
2022/03/19 07:08:19;;;;;;;0.10;0.10;;;;;;;8.12;64.34;104478.63;4975455;28;20058;-79
2022/03/19 07:10:46;;;;;;;0.10;0.10;;;;;;;8.16;64.51;104485.91;4977167;28;20046;-80
2022/03/19 07:13:12;;;;;;;0.10;0.10;;;;;;;8.22;65.23;104478.28;4978250;28;20027;-80
2022/03/19 07:15:38;;;;;;;0.10;0.10;;;;;;;8.29;65.03;104482.09;4977709;28;20101;-79
2022/03/19 07:18:04;;;;;;;0.10;0.10;;;;;;;8.33;65.38;104475.22;4986669;28;20066;-79
2022/03/19 07:20:31;;;;;;;0.10;0.10;;;;;;;8.42;65.98;104468.66;4988652;28;20033;-79
2022/03/19 07:23:00;;;;;;;0.10;0.10;;;;;;;8.54;65.14;104478.03;4981843;28;20510;-79
2022/03/19 07:25:29;;;;;;;0.10;0.10;;;;;;;8.61;64.69;104480.13;4986076;28;20852;-77
2022/03/19 07:27:58;;;;;;;0.30;0.30;;;;;;;8.67;65.38;104474.22;4977769;28;20041;-76
2022/03/19 07:30:25;;;;;;;0.10;0.10;;;;;;;8.78;65.34;104472.06;4971868;28;20031;-79
2022/03/19 07:32:52;;;;;;;0.10;0.10;;;;;;;8.81;65.45;104466.91;4977559;28;20077;-78
2022/03/19 07:35:18;;;;;;;0.10;0.10;;;;;;;8.91;65.76;104463.88;4977141;28;20100;-79
2022/03/19 07:37:45;;;;;;;0.10;0.10;;;;;;;9.03;64.83;104459.13;4978173;28;20034;-80
2022/03/19 07:40:14;;;;;;;0.20;0.20;;;;;;;9.13;65.23;104465.69;4978301;28;20086;-79
2022/03/19 07:42:42;;;;;;;0.10;0.10;;;;;;;9.19;65.53;104459.78;4962807;28;20077;-79
2022/03/19 07:45:08;;;;;;;0.10;0.10;;;;;;;9.32;65.34;104461.22;4987213;28;20034;-79
2022/03/19 07:47:35;;;;;;;0.10;0.10;;;;;;;9.37;64.09;104447.38;4972490;28;20043;-79
2022/03/19 07:50:02;;;;;;;0.10;0.10;;;;;;;9.46;64.55;104457.44;4974625;28;20046;-79
2022/03/19 07:52:31;;;;;;;0.10;0.10;;;;;;;9.59;63.85;104450.91;4976279;28;20054;-79
2022/03/19 07:54:57;;;;;;;0.22;0.17;;;;;;;9.66;63.70;104452.09;4963637;28;20377;-79
2022/03/19 07:57:24;;;;;;;5.60;2.53;;;;;;;9.72;63.81;104452.34;4963935;28;20378;-78
2022/03/19 07:59:51;;;;;;;0.10;0.10;;;;;;;9.82;63.79;104454.53;4964380;28;20033;-80
2022/03/19 08:02:17;;;;;;;0.13;0.13;;;;;;;9.97;63.28;104450.69;4964058;28;20070;-79
2022/03/19 08:04:44;;;;;;;0.10;0.10;;;;;;;10.03;63.07;104446.56;4965998;28;20038;-77
2022/03/19 08:07:10;;;;;;;0.10;0.10;;;;;;;10.11;63.13;104445.97;4963378;28;20568;-76
2022/03/19 08:09:36;;;;;;;0.10;0.10;;;;;;;10.25;62.39;104454.47;4966638;28;20038;-76
2022/03/19 08:12:03;;;;;;;0.10;0.10;;;;;;;10.31;62.00;104450.28;4958343;28;20106;-77
2022/03/19 08:14:31;;;;;;;0.20;0.20;;;;;;;10.36;61.98;104443.44;4955583;28;20086;-77
2022/03/19 08:16:58;;;;;;;0.10;0.10;;;;;;;10.48;61.66;104447.41;4957350;28;20042;-77
2022/03/19 08:19:28;;;;;;;0.03;0.03;;;;;;;10.59;61.44;104456.72;4961830;28;20059;-77
2022/03/19 08:21:54;;;;;;;0.10;0.10;;;;;;;10.67;60.64;104455.22;4954111;28;20047;-77
2022/03/19 08:24:23;;;;;;;0.00;0.00;;;;;;;10.87;60.64;104452.44;4959427;28;20401;-77
2022/03/19 08:26:52;;;;;;;0.20;0.20;;;;;;;10.92;59.35;104448.19;4959860;28;20036;-77
2022/03/19 08:29:18;;;;;;;0.10;0.10;;;;;;;11.09;59.43;104456.75;4964132;28;20031;-77
2022/03/19 08:31:44;;;;;;;0.28;0.28;;;;;;;11.19;59.24;104455.34;4964687;28;20117;-76
2022/03/19 08:34:10;;;;;;;0.10;0.10;;;;;;;11.24;58.48;104453.75;4964461;28;20042;-77
2022/03/19 08:36:37;;;;;;;0.10;0.10;;;;;;;11.40;58.86;104448.97;4956005;28;20035;-77
2022/03/19 08:41:49;;;;;;;0.10;0.10;;;;;;;11.62;57.31;104447.94;4953579;28;20462;-77
2022/03/19 08:44:15;;;;;;;0.10;0.10;;;;;;;11.67;56.17;104449.00;4955705;28;20055;-77
2022/03/19 08:46:41;;;;;;;0.15;0.15;;;;;;;11.73;55.49;104456.28;4958588;28;20031;-77
2022/03/19 08:49:07;;;;;;;0.45;0.45;;;;;;;11.87;56.19;104446.09;4958360;28;20050;-77
2022/03/19 08:51:40;;;;;;;0.63;0.63;;;;;;;11.96;55.59;104442.03;4959552;28;20031;-77
2022/03/19 08:54:09;;;;;;;0.10;0.10;;;;;;;12.05;54.78;104445.81;4961636;28;20031;-77
2022/03/19 08:56:36;;;;;;;0.50;0.50;;;;;;;12.17;54.65;104440.88;4961288;28;20031;-77
2022/03/19 08:59:04;;;;;;;0.00;0.00;;;;;;;12.26;54.63;104446.50;4962797;28;20121;-77
2022/03/19 09:01:30;;;;;;;0.63;0.63;;;;;;;12.34;53.08;104445.84;4964877;28;20031;-77
2022/03/19 09:03:57;;;;;;;0.00;0.00;;;;;;;12.47;54.02;104448.00;4966845;28;21202;-78
2022/03/19 09:06:24;;;;;;;0.30;0.30;;;;;;;12.52;51.66;104443.69;4965329;28;20117;-77
2022/03/19 09:08:50;;;;;;;0.13;0.13;;;;;;;12.56;52.22;104445.63;5073482;22;20046;-79
2022/03/19 09:11:18;;;;;;;0.65;0.65;;;;;;;12.67;52.02;104448.56;5012362;28;20046;-80
2022/03/19 09:13:45;;;;;;;0.10;0.10;;;;;;;12.78;51.88;104441.84;5016128;28;20084;-81
2022/03/19 09:16:12;;;;;;;0.35;0.35;;;;;;;12.88;50.50;104432.31;5017421;28;20068;-80
2022/03/19 09:18:38;;;;;;;0.10;0.10;;;;;;;12.99;50.11;104434.41;5017173;28;20037;-80
2022/03/19 09:21:04;;;;;;;0.10;0.10;;;;;;;13.03;49.83;104421.19;5014133;28;20033;-80
2022/03/19 09:23:30;;;;;;;0.10;0.10;;;;;;;13.07;47.64;104431.09;5017720;28;20022;-80
2022/03/19 09:25:56;;;;;;;0.20;0.20;;;;;;;13.09;47.14;104426.69;5018232;28;20041;-81
2022/03/19 09:28:23;;;;;;;0.10;0.10;;;;;;;13.17;47.05;104421.59;5018130;28;20030;-80
2022/03/19 09:30:49;;;;;;;0.20;0.20;;;;;;;13.23;46.34;104413.75;5017273;28;20030;-81
2022/03/19 09:33:15;;;;;;;0.00;0.00;;;;;;;13.31;45.84;104413.94;5017007;28;20022;-81
2022/03/19 09:35:41;;;;;;;0.00;0.00;;;;;;;13.46;48.00;104420.53;5017574;28;20057;-81
2022/03/19 09:38:07;;;;;;;0.93;0.52;;;;;;;13.55;46.50;104416.34;5016246;28;20038;-80
2022/03/19 09:40:33;;;;;;;0.00;0.00;;;;;;;13.68;47.07;104416.66;5016228;28;20470;-81
2022/03/19 09:43:00;;;;;;;0.10;0.10;;;;;;;13.78;47.45;104408.00;5015630;28;20030;-79
2022/03/19 09:45:28;;;;;;;0.22;0.22;;;;;;;13.85;46.27;104404.63;5016300;28;20088;-79
2022/03/19 09:47:56;;;;;;;1.67;1.25;;;;;;;14.03;46.72;104403.25;5015815;28;20030;-79
2022/03/19 09:50:23;;;;;;;0.20;0.20;;;;;;;14.10;45.59;104404.31;5015884;28;20507;-80
2022/03/19 09:52:53;;;;;;;0.10;0.10;;;;;;;14.21;45.24;104398.31;5015251;28;20404;-80
2022/03/19 09:55:20;;;;;;;1.75;1.15;;;;;;;14.19;43.35;104397.41;5016142;28;20033;-79
2022/03/19 09:57:47;;;;;;;0.00;0.00;;;;;;;14.34;45.46;104394.19;5015787;28;20036;-80
2022/03/19 10:00:14;;;;;;;0.10;0.10;;;;;;;14.48;45.10;104390.88;5016042;28;20041;-79
2022/03/19 10:08:43;;;;;;;0.20;0.20;;;;;;;14.83;44.41;104372.94;5071891;28;20102;-80
2022/03/19 10:13:49;;;;;;;0.00;0.00;;;;;;;15.06;42.59;104367.09;5072996;28;20382;-80
2022/03/19 10:21:40;;;;;;;0.45;0.43;;;;;;;15.25;41.20;104354.94;5032780;28;20144;-79
2022/03/19 10:24:08;;;;;;;0.00;0.00;;;;;;;15.41;40.13;104349.88;5034521;28;20029;-79
2022/03/19 10:26:37;;;;;;;0.00;0.00;;;;;;;15.47;40.63;104349.97;5033617;28;20037;-80
2022/03/19 10:29:09;;;;;;;9.18;1.30;;;;;;;15.55;38.06;104342.94;5022016;28;20469;-79
2022/03/19 10:31:46;;;;;;;1.25;0.90;;;;;;;15.65;40.31;104336.88;5012230;28;20030;-79
2022/03/19 10:34:13;;;;;;;0.00;0.00;;;;;;;15.62;37.34;104325.25;5012386;28;20503;-80
2022/03/19 10:36:42;;;;;;;3.00;0.95;;;;;;;15.73;39.97;104328.97;5013452;28;20034;-79
2022/03/19 10:39:27;;;;;;;0.13;0.13;;;;;;;15.90;37.99;104315.88;5013211;28;20034;-79
2022/03/19 10:41:55;;;;;;;0.10;0.10;;;;;;;15.95;37.38;104310.56;5012823;28;20026;-80
2022/03/19 10:44:25;;;;;;;0.00;0.00;;;;;;;15.94;36.50;104316.81;5013703;28;20030;-79
2022/03/19 10:46:55;;;;;;;0.55;0.55;;;;;;;16.07;36.24;104299.13;5013074;28;20022;-78
2022/03/19 10:49:24;;;;;;;0.10;0.10;;;;;;;16.14;34.10;104301.00;5012722;28;20038;-79
2022/03/19 10:51:53;;;;;;;0.10;0.10;;;;;;;16.30;37.00;104291.38;5013576;28;20088;-79
2022/03/19 10:54:19;;;;;;;0.00;0.00;;;;;;;16.38;35.61;104284.31;5015738;28;20507;-79
2022/03/19 10:56:47;;;;;;;5.57;1.75;;;;;;;16.43;35.54;104295.97;5016741;28;20042;-79
2022/03/19 10:59:14;;;;;;;0.03;0.03;;;;;;;16.55;35.60;104279.13;5014990;28;20030;-80
2022/03/19 11:01:41;;;;;;;0.25;0.25;;;;;;;16.58;33.70;104276.47;5008581;28;20031;-78
2022/03/19 11:04:10;;;;;;;0.10;0.10;;;;;;;16.76;34.62;104274.84;5011225;28;20112;-79
2022/03/19 11:06:39;;;;;;;0.10;0.10;;;;;;;16.84;34.22;104280.31;5015169;28;20045;-78
2022/03/19 11:09:10;;;;;;;0.00;0.00;;;;;;;16.88;34.65;104269.59;5014249;28;20040;-79
2022/03/19 11:11:55;;;;;;;0.63;0.43;;;;;;;17.03;34.37;104258.16;5005884;28;20034;-77
2022/03/19 11:14:26;;;;;;;0.20;0.20;;;;;;;17.09;33.02;104268.91;5010224;28;20030;-79
2022/03/19 11:19:30;;;;;;;0.52;0.52;;;;;;;17.22;31.58;104243.13;5048519;27;20401;-80
2022/03/19 11:21:56;;;;;;;0.10;0.10;;;;;;;17.28;31.00;104245.84;5046138;27;20100;-79
2022/03/19 11:24:26;;;;;;;0.10;0.10;;;;;;;17.39;31.59;104239.63;5045174;27;20090;-79
2022/03/19 11:26:54;;;;;;;0.00;0.00;;;;;;;17.37;29.54;104228.91;5044264;27;20547;-79
2022/03/19 11:29:21;;;;;;;0.00;0.00;;;;;;;17.40;29.39;104223.53;5037178;27;20033;-79
2022/03/19 11:31:59;;;;;;;0.00;0.00;;;;;;;17.54;29.35;104223.59;5043726;27;20036;-79
2022/03/19 11:34:25;;;;;;;0.10;0.10;;;;;;;17.57;28.51;104222.72;5041023;28;20018;-79
2022/03/19 11:36:56;;;;;;;0.03;0.03;;;;;;;17.63;28.50;104217.38;5039387;27;20081;-79
2022/03/19 11:39:22;;;;;;;0.00;0.00;;;;;;;17.64;29.01;104211.13;5040191;28;20814;-80
2022/03/19 11:41:49;;;;;;;0.82;0.80;;;;;;;17.65;28.99;104207.56;5038838;28;20033;-79
2022/03/19 11:49:52;;;;;;;0.00;0.00;;;;;;;18.08;28.42;104204.16;5101833;27;20141;-79
2022/03/19 11:57:58;;;;;;;0.00;0.00;;;;;;;18.39;26.71;104180.03;5071769;28;20190;-80
2022/03/19 12:00:27;;;;;;;0.00;0.00;;;;;;;18.47;27.23;104177.34;5053736;28;20025;-79
2022/03/19 12:03:16;;;;;;;0.00;0.00;;;;;;;18.62;26.94;104182.72;5053145;28;20094;-79
2022/03/19 12:05:47;;;;;;;0.08;0.08;;;;;;;18.68;26.35;104176.44;5052426;28;20029;-80
2022/03/19 12:08:19;;;;;;;0.00;0.00;;;;;;;18.74;26.42;104169.28;5052061;28;20078;-80
2022/03/19 12:16:08;;;;;;;1.15;0.90;;;;;;;18.75;25.39;104165.72;5114270;27;20392;-79
2022/03/19 12:21:21;;;;;;;0.00;0.00;;;;;;;18.92;26.64;104144.19;5093822;27;1199852;-79